createdAt,value
2022-12-13T00:02:40.503Z,12.60
2022-12-13T00:05:15.066Z,12.59
2022-12-13T00:08:10.428Z,12.61
2022-12-13T00:14:41.559Z,12.54
2022-12-13T00:17:09.866Z,12.46
2022-12-13T00:19:45.861Z,12.41
2022-12-13T00:25:05.930Z,12.36
2022-12-13T00:28:00.965Z,12.36
2022-12-13T00:30:50.652Z,12.35
2022-12-13T00:33:25.606Z,12.33
2022-12-13T00:35:54.343Z,12.30
2022-12-13T00:38:22.967Z,12.22
2022-12-13T00:40:53.072Z,12.11
2022-12-13T00:43:21.678Z,12.02
2022-12-13T00:45:58.864Z,11.94
2022-12-13T00:48:27.359Z,11.85
2022-12-13T00:54:09.283Z,11.72
2022-12-13T00:57:16.840Z,11.69
2022-12-13T01:00:38.211Z,11.60
2022-12-13T01:09:59.988Z,11.37
2022-12-13T01:12:41.524Z,11.34
2022-12-13T01:15:10.626Z,11.26
2022-12-13T01:17:39.007Z,11.15
2022-12-13T01:20:10.970Z,11.04
2022-12-13T01:22:39.225Z,10.97
2022-12-13T01:25:09.704Z,10.89
2022-12-13T01:27:38.029Z,10.86
2022-12-13T01:30:06.885Z,10.83
2022-12-13T01:32:35.358Z,10.77
2022-12-13T01:35:03.729Z,10.68
2022-12-13T01:37:37.393Z,10.62
2022-12-13T01:40:16.325Z,10.60
2022-12-13T01:42:45.074Z,10.60
2022-12-13T01:45:32.229Z,10.59
2022-12-13T01:48:11.023Z,10.57
2022-12-13T01:51:06.134Z,10.58
2022-12-13T01:53:47.736Z,10.57
2022-12-13T01:57:09.626Z,10.53
2022-12-13T01:59:43.902Z,10.45
2022-12-13T02:02:15.200Z,10.38
2022-12-13T02:05:05.913Z,10.30
2022-12-13T02:07:36.788Z,10.27
2022-12-13T02:10:07.672Z,10.26
2022-12-13T02:12:38.516Z,10.26
2022-12-13T02:15:26.889Z,10.21
2022-12-13T02:18:17.250Z,10.13
2022-12-13T02:21:08.159Z,10.03
2022-12-13T02:24:11.213Z,9.95
2022-12-13T02:27:02.927Z,9.89
2022-12-13T02:29:50.573Z,9.81
2022-12-13T02:33:12.280Z,9.79
2022-12-13T02:36:21.633Z,9.71
2022-12-13T02:39:09.858Z,9.67
2022-12-13T02:41:58.182Z,9.72
2022-12-13T02:45:09.138Z,9.73
2022-12-13T02:47:42.930Z,9.64
2022-12-13T02:50:14.511Z,9.58
2022-12-13T02:52:47.296Z,9.51
2022-12-13T02:55:17.781Z,9.51
2022-12-13T02:57:49.606Z,9.51
2022-12-13T03:00:20.856Z,9.53
2022-12-13T03:03:10.659Z,9.55
2022-12-13T03:06:02.835Z,9.55
2022-12-13T03:08:44.524Z,9.56
2022-12-13T03:11:15.116Z,9.48
2022-12-13T03:14:06.394Z,9.42
2022-12-13T03:16:55.890Z,9.42
2022-12-13T03:19:24.666Z,9.49
2022-12-13T03:21:53.037Z,9.54
2022-12-13T03:24:22.605Z,9.52
2022-12-13T03:26:52.990Z,9.56
2022-12-13T03:29:23.459Z,9.59
2022-12-13T03:31:52.565Z,9.61
2022-12-13T03:34:22.247Z,9.64
2022-12-13T03:36:54.750Z,9.56
2022-12-13T03:39:24.063Z,9.48
2022-12-13T03:41:52.752Z,9.35
2022-12-13T03:44:21.117Z,9.25
2022-12-13T03:46:49.447Z,9.18
2022-12-13T03:49:17.834Z,9.16
2022-12-13T03:51:46.714Z,9.15
2022-12-13T03:54:14.990Z,9.11
2022-12-13T03:56:43.239Z,9.06
2022-12-13T03:59:11.711Z,9.04
2022-12-13T04:01:40.025Z,9.06
2022-12-13T04:04:09.414Z,9.07
2022-12-13T04:06:37.641Z,9.05
2022-12-13T04:09:05.938Z,8.99
2022-12-13T04:11:52.618Z,8.95
2022-12-13T04:14:23.843Z,8.94
2022-12-13T04:16:53.208Z,8.93
2022-12-13T04:19:24.353Z,8.92
2022-12-13T04:21:54.988Z,8.93
2022-12-13T04:24:31.309Z,8.90
2022-12-13T04:27:01.781Z,8.86
2022-12-13T04:29:33.907Z,8.80
2022-12-13T04:32:04.920Z,8.73
2022-12-13T04:34:37.615Z,8.68
2022-12-13T04:37:10.462Z,8.64
2022-12-13T04:39:38.727Z,8.63
2022-12-13T04:42:16.861Z,8.59
2022-12-13T04:44:46.280Z,8.53
2022-12-13T04:47:14.694Z,8.52
2022-12-13T04:49:42.968Z,8.50
2022-12-13T04:52:12.018Z,8.46
2022-12-13T04:54:55.604Z,8.43
2022-12-13T04:57:24.717Z,8.39
2022-12-13T04:59:56.067Z,8.34
2022-12-13T05:02:33.897Z,8.30
2022-12-13T05:05:03.145Z,8.26
2022-12-13T05:07:31.690Z,8.22
2022-12-13T05:09:59.899Z,8.17
2022-12-13T05:12:28.353Z,8.12
2022-12-13T05:14:56.573Z,8.07
2022-12-13T05:17:25.057Z,8.02
2022-12-13T05:19:56.042Z,7.98
2022-12-13T05:22:24.291Z,7.94
2022-12-13T05:24:52.681Z,7.94
2022-12-13T05:27:25.220Z,7.91
2022-12-13T05:30:04.959Z,7.90
2022-12-13T05:32:44.771Z,7.90
2022-12-13T05:35:23.157Z,7.85
2022-12-13T05:37:57.307Z,7.83
2022-12-13T05:40:27.358Z,7.81
2022-12-13T05:43:01.579Z,7.76
2022-12-13T05:45:32.355Z,7.70
2022-12-13T05:48:01.057Z,7.65
2022-12-13T05:50:29.580Z,7.61
2022-12-13T05:52:57.991Z,7.61
2022-12-13T05:55:26.188Z,7.62
2022-12-13T05:57:54.451Z,7.63
2022-12-13T06:00:33.718Z,7.62
2022-12-13T06:03:03.301Z,7.63
2022-12-13T06:05:32.812Z,7.59
2022-12-13T06:08:04.425Z,7.57
2022-12-13T06:11:10.320Z,7.53
2022-12-13T06:13:44.332Z,7.48
2022-12-13T06:16:22.886Z,7.50
2022-12-13T06:19:02.778Z,7.54
2022-12-13T06:21:43.533Z,7.59
2022-12-13T06:24:19.201Z,7.59
2022-12-13T06:26:47.854Z,7.54
2022-12-13T06:29:25.208Z,7.52
2022-12-13T06:32:01.905Z,7.52
2022-12-13T06:34:34.292Z,7.45
2022-12-13T06:37:04.029Z,7.40
2022-12-13T06:39:33.627Z,7.37
2022-12-13T06:42:04.270Z,7.34
2022-12-13T06:44:32.658Z,7.32
2022-12-13T06:47:11.689Z,7.33
2022-12-13T06:49:43.919Z,7.31
2022-12-13T06:52:13.772Z,7.29
2022-12-13T06:54:42.631Z,7.28
2022-12-13T06:57:12.779Z,7.30
2022-12-13T06:59:43.823Z,7.29
2022-12-13T07:02:25.309Z,7.28
2022-12-13T07:04:55.888Z,7.23
2022-12-13T07:07:25.528Z,7.19
2022-12-13T07:09:55.683Z,7.16
2022-12-13T07:12:24.401Z,7.13
2022-12-13T07:14:52.760Z,7.11
2022-12-13T07:17:33.205Z,7.06
2022-12-13T07:20:10.949Z,7.01
2022-12-13T07:22:45.186Z,6.96
2022-12-13T07:25:28.418Z,6.93
2022-12-13T07:28:03.050Z,6.95
2022-12-13T07:30:41.472Z,6.97
2022-12-13T07:33:10.901Z,6.96
2022-12-13T07:35:39.615Z,6.94
2022-12-13T07:38:09.018Z,6.92
2022-12-13T07:40:38.827Z,6.90
2022-12-13T07:43:07.956Z,6.89
2022-12-13T07:45:37.394Z,6.88
2022-12-13T07:48:06.952Z,6.89
2022-12-13T07:50:37.135Z,6.89
2022-12-13T07:53:10.198Z,6.88
2022-12-13T07:55:39.311Z,6.86
2022-12-13T07:58:09.707Z,6.84
2022-12-13T08:00:39.704Z,6.79
2022-12-13T08:03:13.430Z,6.74
2022-12-13T08:06:03.728Z,6.69
2022-12-13T08:08:32.691Z,6.66
2022-12-13T08:11:13.086Z,6.67
2022-12-13T08:13:42.317Z,6.65
2022-12-13T08:16:27.492Z,6.63
2022-12-13T08:19:04.047Z,6.60
2022-12-13T08:21:58.290Z,6.57
2022-12-13T08:24:29.324Z,6.55
2022-12-13T08:27:03.091Z,6.55
2022-12-13T08:29:36.403Z,6.54
2022-12-13T08:32:11.307Z,6.54
2022-12-13T08:34:40.197Z,6.50
2022-12-13T08:37:08.830Z,6.45
2022-12-13T08:39:39.397Z,6.42
2022-12-13T08:42:16.589Z,6.37
2022-12-13T08:44:51.626Z,6.34
2022-12-13T08:47:22.553Z,6.33
2022-12-13T08:49:52.358Z,6.40
2022-12-13T08:52:23.171Z,6.43
2022-12-13T08:54:51.984Z,6.43
2022-12-13T08:57:20.227Z,6.42
2022-12-13T08:59:48.497Z,6.38
2022-12-13T09:02:17.399Z,6.37
2022-12-13T09:04:46.635Z,6.34
2022-12-13T09:07:15.319Z,6.31
2022-12-13T09:09:43.788Z,6.28
2022-12-13T09:12:30.896Z,6.25
2022-12-13T09:15:01.224Z,6.18
2022-12-13T09:17:36.735Z,6.17
2022-12-13T09:20:10.056Z,6.16
2022-12-13T09:23:02.406Z,6.15
2022-12-13T09:25:36.783Z,6.12
2022-12-13T09:28:10.185Z,6.10
2022-12-13T09:30:41.608Z,6.07
2022-12-13T09:33:27.975Z,6.05
2022-12-13T09:35:58.256Z,6.02
2022-12-13T09:38:29.667Z,6.02
2022-12-13T09:41:00.514Z,6.01
2022-12-13T09:43:42.508Z,6.04
2022-12-13T09:46:27.576Z,6.01
2022-12-13T09:49:05.840Z,5.95
2022-12-13T09:51:47.314Z,5.95
2022-12-13T09:54:22.244Z,5.96
2022-12-13T09:56:52.316Z,5.96
2022-12-13T09:59:29.249Z,5.93
2022-12-13T10:02:03.638Z,5.90
2022-12-13T10:04:32.775Z,5.87
2022-12-13T10:07:01.038Z,5.86
2022-12-13T10:09:29.336Z,5.85
2022-12-13T10:11:57.609Z,5.80
2022-12-13T10:14:44.806Z,5.79
2022-12-13T10:17:20.264Z,5.77
2022-12-13T10:19:53.480Z,5.75
2022-12-13T10:22:26.052Z,5.75
2022-12-13T10:25:04.753Z,5.77
2022-12-13T10:27:41.238Z,5.76
2022-12-13T10:30:14.042Z,5.72
2022-12-13T10:33:06.097Z,5.72
2022-12-13T10:35:43.347Z,5.72
2022-12-13T10:38:17.781Z,5.72
2022-12-13T10:40:46.551Z,5.71
2022-12-13T10:43:23.336Z,5.71
2022-12-13T10:46:04.056Z,5.70
2022-12-13T10:48:38.359Z,5.68
2022-12-13T10:51:16.369Z,5.67
2022-12-13T10:53:51.221Z,5.65
2022-12-13T10:56:22.784Z,5.65
2022-12-13T10:59:15.009Z,5.64
2022-12-13T11:01:45.777Z,5.67
2022-12-13T11:04:30.132Z,5.70
2022-12-13T11:07:01.482Z,5.71
2022-12-13T11:09:39.176Z,5.72
2022-12-13T11:12:17.328Z,5.71
2022-12-13T11:15:01.932Z,5.59
2022-12-13T11:17:33.237Z,5.51
2022-12-13T11:20:08.066Z,5.48
2022-12-13T11:22:39.083Z,5.49
2022-12-13T11:25:18.947Z,5.51
2022-12-13T11:28:31.643Z,5.53
2022-12-13T11:31:23.855Z,5.51
2022-12-13T11:34:10.000Z,5.51
2022-12-13T11:36:59.351Z,5.47
2022-12-13T11:39:34.213Z,5.47
2022-12-13T11:42:28.723Z,5.48
2022-12-13T11:45:30.754Z,5.45
2022-12-13T11:48:14.417Z,5.33
2022-12-13T11:50:47.343Z,5.32
2022-12-13T11:53:24.123Z,5.31
2022-12-13T11:55:56.706Z,5.31
2022-12-13T11:59:03.957Z,5.32
2022-12-13T12:01:54.197Z,5.28
2022-12-13T12:04:36.291Z,5.27
2022-12-13T12:07:34.439Z,5.22
2022-12-13T12:10:15.802Z,5.19
2022-12-13T12:12:49.933Z,5.15
2022-12-13T12:15:29.563Z,5.15
2022-12-13T12:17:58.209Z,5.13
2022-12-13T12:20:45.072Z,5.16
2022-12-13T12:23:52.760Z,5.15
2022-12-13T12:26:32.565Z,5.15
2022-12-13T12:29:04.115Z,5.14
2022-12-13T12:31:50.565Z,5.16
2022-12-13T12:34:38.093Z,5.15
2022-12-13T12:37:36.626Z,5.14
2022-12-13T12:40:17.036Z,5.11
2022-12-13T12:43:27.128Z,5.05
2022-12-13T12:45:56.975Z,5.01
2022-12-13T12:49:01.372Z,4.97
2022-12-13T12:51:34.740Z,4.95
2022-12-13T12:54:32.949Z,4.95
2022-12-13T12:57:15.573Z,4.93
2022-12-13T12:59:50.213Z,4.94
2022-12-13T13:02:34.556Z,4.92
2022-12-13T13:05:22.884Z,4.94
2022-12-13T13:07:59.776Z,4.99
2022-12-13T13:10:28.790Z,5.00
2022-12-13T13:13:11.589Z,4.97
2022-12-13T13:15:41.091Z,4.89
2022-12-13T13:18:47.909Z,4.85
2022-12-13T13:21:26.581Z,4.87
2022-12-13T13:24:10.185Z,4.92
2022-12-13T13:26:44.439Z,4.98
2022-12-13T13:29:27.228Z,5.03
2022-12-13T13:32:06.068Z,5.03
2022-12-13T13:34:41.388Z,5.09
2022-12-13T13:37:29.209Z,5.07
2022-12-13T13:39:59.627Z,5.09
2022-12-13T13:42:30.250Z,5.16
2022-12-13T13:45:21.390Z,5.21
2022-12-13T13:48:14.492Z,5.21
2022-12-13T13:51:20.396Z,5.23
2022-12-13T13:54:13.425Z,5.18
2022-12-13T13:57:06.363Z,5.18
2022-12-13T13:59:58.782Z,5.09
2022-12-13T14:02:32.856Z,4.98
2022-12-13T14:05:16.455Z,4.88
2022-12-13T14:08:03.584Z,4.75
2022-12-13T14:10:52.241Z,4.70
2022-12-13T14:13:50.623Z,4.75
2022-12-13T14:16:47.790Z,4.76
2022-12-13T14:19:37.906Z,4.66
2022-12-13T14:22:31.389Z,4.46
2022-12-13T14:25:40.614Z,4.28
2022-12-13T14:28:27.533Z,4.24
2022-12-13T14:30:58.306Z,4.29
2022-12-13T14:33:28.216Z,4.36
2022-12-13T14:36:05.180Z,4.52
2022-12-13T14:38:33.706Z,4.61
2022-12-13T14:41:04.126Z,4.64
2022-12-13T14:43:34.719Z,4.59
2022-12-13T14:46:08.181Z,4.48
2022-12-13T14:48:54.434Z,4.41
2022-12-13T14:51:40.551Z,4.37
2022-12-13T14:54:24.028Z,4.31
2022-12-13T14:57:02.740Z,4.25
2022-12-13T14:59:31.859Z,4.23
2022-12-13T15:02:06.151Z,4.25
2022-12-13T15:04:36.979Z,4.29
2022-12-13T15:07:37.088Z,4.34
2022-12-13T15:10:21.239Z,4.38
2022-12-13T15:12:54.859Z,4.46
2022-12-13T15:15:36.354Z,4.51
2022-12-13T15:18:19.488Z,4.49
2022-12-13T15:20:49.383Z,4.48
2022-12-13T15:23:23.401Z,4.42
2022-12-13T15:26:00.238Z,4.33
2022-12-13T15:28:35.465Z,4.39
2022-12-13T15:31:07.052Z,4.47
2022-12-13T15:33:39.453Z,4.53
2022-12-13T15:36:14.161Z,4.59
2022-12-13T15:38:50.160Z,4.61
2022-12-13T15:41:21.072Z,4.58
2022-12-13T15:44:04.355Z,4.66
2022-12-13T15:46:38.831Z,4.76
2022-12-13T15:49:37.184Z,4.86
2022-12-13T15:52:27.414Z,4.96
2022-12-13T15:55:08.199Z,5.09
2022-12-13T15:57:50.446Z,5.21
2022-12-13T16:00:18.585Z,5.36
2022-12-13T16:03:17.235Z,5.55
2022-12-13T16:05:55.871Z,5.69
2022-12-13T16:08:38.243Z,5.79
2022-12-13T16:11:09.002Z,5.91
2022-12-13T16:13:39.199Z,6.01
2022-12-13T16:16:30.974Z,6.11
2022-12-13T16:19:01.453Z,6.24
2022-12-13T16:21:31.107Z,6.40
2022-12-13T16:23:59.290Z,6.52
2022-12-13T16:26:30.416Z,6.69
2022-12-13T16:29:00.271Z,6.85
2022-12-13T16:31:36.486Z,7.02
2022-12-13T16:34:06.150Z,7.17
2022-12-13T16:36:34.720Z,7.30
2022-12-13T16:39:03.236Z,7.44
2022-12-13T16:41:32.100Z,7.63
2022-12-13T16:44:03.363Z,7.84
2022-12-13T16:47:13.038Z,8.04
2022-12-13T16:49:30.786Z,8.27
2022-12-13T16:51:59.253Z,8.46
2022-12-13T16:54:27.757Z,8.55
2022-12-13T16:56:56.107Z,8.74
2022-12-13T16:59:26.127Z,8.89
2022-12-13T17:01:55.185Z,9.04
2022-12-13T17:04:25.577Z,9.29
2022-12-13T17:06:55.469Z,9.49
2022-12-13T17:09:25.966Z,9.50
2022-12-13T17:11:54.309Z,9.46
2022-12-13T17:14:22.601Z,9.43
2022-12-13T17:16:51.048Z,9.46
2022-12-13T17:19:19.396Z,9.56
2022-12-13T17:21:47.705Z,9.79
2022-12-13T17:24:16.334Z,9.99
2022-12-13T17:26:53.809Z,10.20
2022-12-13T17:29:22.606Z,10.45
2022-12-13T17:31:50.899Z,10.64
2022-12-13T17:34:19.151Z,10.80
2022-12-13T17:36:47.562Z,10.96
2022-12-13T17:39:15.837Z,11.07
2022-12-13T17:41:44.174Z,11.03
2022-12-13T17:44:23.154Z,10.97
2022-12-13T17:46:54.862Z,11.15
2022-12-13T17:49:24.865Z,11.40
2022-12-13T17:51:55.164Z,11.50
2022-12-13T17:54:27.133Z,11.58
2022-12-13T17:56:55.635Z,11.76
2022-12-13T17:59:24.339Z,11.92
2022-12-13T18:01:53.015Z,12.07
2022-12-13T18:04:22.439Z,12.11
2022-12-13T18:06:53.274Z,12.03
2022-12-13T18:09:22.291Z,12.03
2022-12-13T18:11:50.618Z,12.29
2022-12-13T18:14:18.951Z,12.62
2022-12-13T18:16:47.700Z,12.86
2022-12-13T18:19:16.083Z,13.10
2022-12-13T18:21:44.691Z,13.27
2022-12-13T18:24:13.723Z,13.24
2022-12-13T18:26:41.982Z,12.91
2022-12-13T18:29:10.475Z,12.72
2022-12-13T18:31:39.047Z,12.69
2022-12-13T18:34:07.479Z,12.61
2022-12-13T18:36:36.322Z,12.50
2022-12-13T18:39:05.328Z,12.36
2022-12-13T18:41:33.960Z,12.21
2022-12-13T18:44:07.553Z,12.11
2022-12-13T18:46:37.689Z,11.96
2022-12-13T18:49:07.523Z,11.89
2022-12-13T18:51:36.122Z,11.88
2022-12-13T18:54:04.592Z,11.85
2022-12-13T18:56:32.866Z,11.84
2022-12-13T18:59:01.113Z,11.85
2022-12-13T19:01:29.527Z,11.81
2022-12-13T19:03:57.993Z,11.75
2022-12-13T19:06:29.068Z,11.79
2022-12-13T19:08:59.336Z,11.82
2022-12-13T19:11:29.305Z,11.98
2022-12-13T19:13:58.019Z,12.42
2022-12-13T19:16:27.729Z,12.64
2022-12-13T19:18:58.975Z,12.77
2022-12-13T19:21:28.223Z,12.75
2022-12-13T19:23:58.507Z,12.91
2022-12-13T19:26:28.985Z,13.02
2022-12-13T19:28:59.427Z,13.05
2022-12-13T19:31:31.588Z,12.87
2022-12-13T19:34:02.609Z,12.78
2022-12-13T19:36:32.655Z,12.77
2022-12-13T19:39:00.968Z,12.78
2022-12-13T19:41:30.595Z,12.83
2022-12-13T19:43:59.303Z,12.90
2022-12-13T19:46:28.059Z,12.90
2022-12-13T19:48:56.415Z,12.82
2022-12-13T19:51:24.854Z,12.88
2022-12-13T19:53:53.187Z,12.94
2022-12-13T19:56:22.763Z,12.91
2022-12-13T19:58:52.233Z,12.94
2022-12-13T20:01:20.601Z,12.91
2022-12-13T20:03:49.637Z,12.86
2022-12-13T20:06:21.165Z,12.86
2022-12-13T20:08:51.145Z,12.85
2022-12-13T20:11:24.430Z,12.88
2022-12-13T20:13:55.896Z,12.93
2022-12-13T20:16:27.797Z,12.91
2022-12-13T20:19:02.482Z,12.89
2022-12-13T20:21:31.322Z,12.87
2022-12-13T20:24:00.056Z,12.90
2022-12-13T20:26:30.493Z,12.90
2022-12-13T20:28:59.184Z,12.90
2022-12-13T20:31:35.921Z,12.91
2022-12-13T20:34:07.547Z,12.94
2022-12-13T20:36:35.857Z,13.01
2022-12-13T20:39:06.367Z,12.96
2022-12-13T20:41:37.017Z,12.91
2022-12-13T20:44:07.843Z,12.88
2022-12-13T20:46:36.436Z,12.86
2022-12-13T20:49:06.806Z,12.83
2022-12-13T20:51:36.459Z,12.82
2022-12-13T20:54:05.545Z,12.78
2022-12-13T20:56:36.487Z,12.77
2022-12-13T20:59:06.952Z,12.79
2022-12-13T21:01:38.821Z,12.78
2022-12-13T21:04:08.264Z,12.80
2022-12-13T21:06:39.508Z,12.85
2022-12-13T21:09:10.511Z,12.87
2022-12-13T21:11:46.461Z,12.89
2022-12-13T21:14:22.469Z,12.91
2022-12-13T21:16:58.806Z,12.86
2022-12-13T21:19:39.567Z,12.88
2022-12-13T21:22:08.892Z,12.87
2022-12-13T21:24:37.177Z,12.89
2022-12-13T21:27:05.456Z,12.89
2022-12-13T21:29:33.665Z,12.89
2022-12-13T21:32:02.082Z,12.87
2022-12-13T21:34:30.891Z,12.91
2022-12-13T21:36:59.275Z,12.93
2022-12-13T21:39:31.736Z,12.93
2022-12-13T21:42:00.644Z,12.90
2022-12-13T21:44:29.316Z,12.88
2022-12-13T21:47:13.592Z,12.87
2022-12-13T21:49:48.740Z,12.85
2022-12-13T21:52:17.482Z,12.84
2022-12-13T21:54:45.770Z,12.85
2022-12-13T21:57:32.962Z,12.83
2022-12-13T22:00:01.277Z,12.81
2022-12-13T22:02:29.629Z,12.79
2022-12-13T22:04:59.834Z,12.78
2022-12-13T22:07:30.855Z,12.75
2022-12-13T22:10:01.002Z,12.71
2022-12-13T22:12:40.692Z,12.70
2022-12-13T22:15:11.558Z,12.69
2022-12-13T22:17:40.755Z,12.70
2022-12-13T22:20:15.017Z,12.71
2022-12-13T22:22:49.381Z,12.68
2022-12-13T22:25:17.701Z,12.65
2022-12-13T22:27:45.944Z,12.62
2022-12-13T22:30:14.873Z,12.60
2022-12-13T22:32:45.184Z,12.58
2022-12-13T22:35:14.908Z,12.54
2022-12-13T22:37:43.258Z,12.56
2022-12-13T22:40:12.088Z,12.61
2022-12-13T22:42:43.734Z,12.61
2022-12-13T22:45:16.817Z,12.62
2022-12-13T22:47:45.083Z,12.68
2022-12-13T22:50:13.340Z,12.75
2022-12-13T22:52:42.025Z,12.76
2022-12-13T22:55:10.814Z,12.75
2022-12-13T22:57:39.270Z,12.78
2022-12-13T23:00:11.016Z,12.80
2022-12-13T23:02:39.395Z,12.88
2022-12-13T23:05:07.856Z,12.94
2022-12-13T23:07:39.744Z,13.04
2022-12-13T23:10:44.431Z,13.14
2022-12-13T23:13:15.484Z,13.26
2022-12-13T23:15:49.183Z,13.33
2022-12-13T23:18:17.862Z,13.33
2022-12-13T23:20:50.301Z,13.26
2022-12-13T23:23:18.621Z,13.18
2022-12-13T23:25:49.075Z,13.11
2022-12-13T23:28:17.516Z,13.01
2022-12-13T23:30:45.991Z,12.96
2022-12-13T23:33:14.274Z,12.92
2022-12-13T23:35:44.566Z,12.85
2022-12-13T23:38:12.979Z,12.83
2022-12-13T23:40:41.414Z,12.77
2022-12-13T23:43:10.419Z,12.69
2022-12-13T23:45:41.970Z,12.64
2022-12-13T23:48:13.231Z,12.61
2022-12-13T23:50:41.909Z,12.60
2022-12-13T23:53:10.202Z,12.49
2022-12-13T23:55:42.023Z,12.42
2022-12-13T23:58:10.365Z,12.40
